Time;durP1;ratioP1;P1;durP2;ratioP2;P2;SDS_P1;SDS_P2;PMS_P1;PMS_P2;Temp;Humidity;BMP_temperature;BMP_pressure;BME280_temperature;BME280_humidity;BME280_pressure;Samples;Min_cycle;Max_cycle;Signal;HPM_P1;HPM_P2
2022/09/15 00:00:05;;;;;;;19.25;3.92;;;;;;;;;;6179812;23;20029;-74
2022/09/15 00:02:38;;;;;;;19.85;3.92;;;;;;;;;;6181000;23;20027;-75
2022/09/15 00:05:05;;;;;;;16.90;3.63;;;;;;;;;;6179705;23;20072;-75
2022/09/15 00:07:39;;;;;;;15.77;3.58;;;;;;;;;;6179825;23;20099;-75
2022/09/15 00:10:08;;;;;;;22.38;3.58;;;;;;;;;;6180293;23;20144;-75
2022/09/15 00:12:35;;;;;;;17.25;3.47;;;;;;;;;;6154334;23;20027;-75
2022/09/15 00:15:17;;;;;;;12.00;2.97;;;;;;;;;;6179508;23;20047;-75
2022/09/15 00:17:52;;;;;;;15.15;3.45;;;;;;;;;;6179820;23;20033;-75
2022/09/15 00:20:25;;;;;;;13.57;3.10;;;;;;;;;;6179929;23;20027;-75
2022/09/15 00:22:52;;;;;;;20.33;4.28;;;;;;;;;;6179970;23;20221;-74
2022/09/15 00:25:19;;;;;;;15.30;3.35;;;;;;;;;;6179902;23;20100;-74
2022/09/15 00:27:53;;;;;;;26.92;4.25;;;;;;;;;;6179659;23;20421;-75
2022/09/15 00:30:20;;;;;;;19.95;3.50;;;;;;;;;;6180623;23;20558;-75
2022/09/15 00:32:54;;;;;;;18.38;3.90;;;;;;;;;;6179133;23;20021;-75
2022/09/15 00:35:22;;;;;;;;;;;;;;;;;;6180668;23;20537;-74
2022/09/15 00:37:49;;;;;;;16.58;3.30;;;;;;;;;;6178996;23;19944;-75
2022/09/15 00:40:22;;;;;;;17.38;3.92;;;;;;;;;;6179677;23;20068;-75
2022/09/15 00:42:49;;;;;;;21.05;4.05;;;;;;;;;;6179404;23;20021;-74
2022/09/15 00:45:23;;;;;;;27.80;4.00;;;;;;;;;;6179900;23;20474;-75
2022/09/15 00:47:51;;;;;;;23.92;3.15;;;;;;;;;;6180364;23;20045;-73
2022/09/15 00:50:18;;;;;;;;;;;;;;;;;;6181536;23;20128;-74
2022/09/15 00:52:57;;;;;;;13.52;2.67;;;;;;;;;;6181329;23;20003;-74
2022/09/15 00:55:25;;;;;;;14.52;3.35;;;;;;;;;;6178803;23;20474;-75
2022/09/15 00:58:03;;;;;;;13.05;2.88;;;;;;;;;;6180285;23;20136;-75
2022/09/15 01:00:30;;;;;;;18.10;2.97;;;;;;;;;;6181066;23;20039;-75
2022/09/15 01:03:04;;;;;;;17.50;2.80;;;;;;;;;;6179658;23;20462;-75
2022/09/15 01:05:35;;;;;;;9.43;3.03;;;;;;;;;;6179780;23;20031;-74
2022/09/15 01:08:27;;;;;;;18.30;2.90;;;;;;;;;;6182860;23;20075;-74
2022/09/15 01:10:55;;;;;;;14.60;2.67;;;;;;;;;;6181873;23;20039;-75
2022/09/15 01:13:29;;;;;;;11.88;2.60;;;;;;;;;;6182598;23;20028;-75
2022/09/15 01:16:15;;;;;;;16.80;2.95;;;;;;;;;;6181781;23;20378;-74
2022/09/15 01:19:28;;;;;;;14.07;2.63;;;;;;;;;;6181865;23;20055;-75
2022/09/15 01:21:58;;;;;;;15.65;3.00;;;;;;;;;;6181656;23;20413;-75
2022/09/15 01:24:35;;;;;;;13.40;2.95;;;;;;;;;;6156776;23;20053;-75
2022/09/15 01:27:08;;;;;;;12.32;2.72;;;;;;;;;;6181683;23;20462;-75
2022/09/15 01:30:06;;;;;;;5.28;2.33;;;;;;;;;;6160982;23;20021;-75
2022/09/15 01:33:04;;;;;;;11.00;2.67;;;;;;;;;;6182291;23;20021;-75
2022/09/15 01:35:50;;;;;;;14.15;2.83;;;;;;;;;;6181154;23;20099;-76
2022/09/15 01:38:23;;;;;;;11.23;2.72;;;;;;;;;;6180278;23;20107;-75
2022/09/15 01:41:09;;;;;;;14.85;3.10;;;;;;;;;;6180847;23;20467;-75
2022/09/15 01:43:40;;;;;;;10.90;2.78;;;;;;;;;;6180544;23;20044;-75
2022/09/15 01:46:15;;;;;;;15.02;3.28;;;;;;;;;;6180564;23;20024;-75
2022/09/15 01:48:42;;;;;;;12.75;2.83;;;;;;;;;;6179782;23;20024;-75
2022/09/15 01:51:16;;;;;;;6.38;2.20;;;;;;;;;;6155439;23;20132;-75
2022/09/15 01:53:43;;;;;;;;;;;;;;;;;;6180913;23;20094;-75
2022/09/15 01:56:11;;;;;;;19.25;2.95;;;;;;;;;;6154831;23;19916;-75
2022/09/15 01:58:48;;;;;;;15.77;2.92;;;;;;;;;;6178930;23;20032;-75
2022/09/15 02:01:26;;;;;;;16.30;3.28;;;;;;;;;;6179245;23;20096;-75
2022/09/15 02:04:11;;;;;;;16.77;3.30;;;;;;;;;;6180454;23;20036;-74
2022/09/15 02:06:43;;;;;;;18.88;3.03;;;;;;;;;;6181347;23;20097;-75
2022/09/15 02:09:22;;;;;;;11.98;2.40;;;;;;;;;;6179766;23;20107;-75
2022/09/15 02:11:53;;;;;;;15.38;2.75;;;;;;;;;;6180776;23;20096;-75
2022/09/15 02:14:37;;;;;;;11.38;2.88;;;;;;;;;;6180774;23;20020;-75
2022/09/15 02:17:13;;;;;;;13.25;3.22;;;;;;;;;;6178213;23;20100;-75
2022/09/15 02:19:52;;;;;;;10.90;2.80;;;;;;;;;;6181526;23;20056;-75
2022/09/15 02:22:22;;;;;;;16.42;2.38;;;;;;;;;;6180911;23;20055;-75
2022/09/15 02:25:01;;;;;;;12.02;3.15;;;;;;;;;;6181870;23;20021;-75
2022/09/15 02:27:30;;;;;;;5.72;1.70;;;;;;;;;;6181634;23;20029;-75
2022/09/15 02:30:15;;;;;;;14.85;2.83;;;;;;;;;;6180300;23;20100;-75
2022/09/15 02:32:55;;;;;;;8.60;2.00;;;;;;;;;;6155481;23;20489;-75
2022/09/15 02:35:23;;;;;;;10.98;2.08;;;;;;;;;;6180403;23;20040;-75
2022/09/15 02:37:57;;;;;;;9.73;2.30;;;;;;;;;;6180960;23;20100;-75
2022/09/15 02:40:24;;;;;;;;;;;;;;;;;;6180547;23;20100;-76
2022/09/15 02:43:04;;;;;;;5.82;1.80;;;;;;;;;;6180473;23;19944;-76
2022/09/15 02:45:31;;;;;;;7.30;2.00;;;;;;;;;;6178694;23;20059;-75
2022/09/15 02:48:08;;;;;;;9.40;1.75;;;;;;;;;;6154195;23;20047;-76
2022/09/15 02:50:35;;;;;;;14.80;3.05;;;;;;;;;;6179682;23;20021;-75
2022/09/15 02:53:03;;;;;;;18.88;2.53;;;;;;;;;;6179921;23;20072;-75
2022/09/15 02:55:37;;;;;;;17.40;2.80;;;;;;;;;;6179737;23;20425;-76
2022/09/15 02:58:04;;;;;;;;;;;;;;;;;;6181520;23;20052;-75
2022/09/15 03:00:38;;;;;;;12.27;2.20;;;;;;;;;;6179871;23;19920;-75
2022/09/15 03:03:05;;;;;;;9.63;2.30;;;;;;;;;;6180529;23;20024;-75
2022/09/15 03:05:39;;;;;;;8.07;2.60;;;;;;;;;;6179878;23;20104;-75
2022/09/15 03:08:06;;;;;;;10.45;2.03;;;;;;;;;;6180569;23;20127;-76
2022/09/15 03:10:34;;;;;;;11.80;2.30;;;;;;;;;;6179789;23;20484;-76
2022/09/15 03:13:07;;;;;;;10.88;2.38;;;;;;;;;;6180468;23;20025;-75
2022/09/15 03:15:42;;;;;;;12.10;2.50;;;;;;;;;;6179440;23;20027;-75
2022/09/15 03:18:22;;;;;;;12.73;2.65;;;;;;;;;;6180156;23;20104;-75
2022/09/15 03:20:49;;;;;;;16.05;2.70;;;;;;;;;;6179888;23;20097;-75
2022/09/15 07:33:32;;;;;;;0.93;0.68;;;;;;;;;;5852998;22;8492214;-62
2022/09/15 07:36:07;;;;;;;1.70;1.02;;;;;;;;;;6179075;23;20021;-62
2022/09/15 07:38:43;;;;;;;1.42;1.08;;;;;;;;;;6179949;23;20020;-62
2022/09/15 07:41:18;;;;;;;3.70;1.30;;;;;;;;;;6179971;23;20414;-62
2022/09/15 07:43:46;;;;;;;1.80;1.27;;;;;;;;;;6175561;23;20095;-62
2022/09/15 07:46:21;;;;;;;1.20;0.82;;;;;;;;;;6177533;23;20025;-68
2022/09/15 07:48:49;;;;;;;2.72;1.10;;;;;;;;;;6178992;23;20051;-51
2022/09/15 07:51:16;;;;;;;2.67;0.93;;;;;;;;;;6177894;23;20344;-50
2022/09/15 07:53:50;;;;;;;2.10;1.20;;;;;;;;;;6179535;23;20021;-50
2022/09/15 07:56:18;;;;;;;;;;;;;;;;;;6178955;23;20025;-54
2022/09/15 07:58:45;;;;;;;1.80;0.95;;;;;;;;;;6178496;23;20461;-49
2022/09/15 08:01:21;;;;;;;2.35;1.00;;;;;;;;;;6178477;23;20025;-50
2022/09/15 08:03:49;;;;;;;3.42;1.10;;;;;;;;;;6179477;23;20025;-66
2022/09/15 08:06:24;;;;;;;3.53;0.90;;;;;;;;;;6178030;23;20024;-51
2022/09/15 08:08:51;;;;;;;3.33;0.90;;;;;;;;;;6179552;23;20017;-57
2022/09/15 08:11:27;;;;;;;3.35;1.30;;;;;;;;;;6178384;23;20021;-58
2022/09/15 08:13:54;;;;;;;;;;;;;;;;;;6180486;23;20025;-58
2022/09/15 08:16:28;;;;;;;1.77;1.35;;;;;;;;;;6178203;23;19966;-58
2022/09/15 08:18:55;;;;;;;2.42;1.40;;;;;;;;;;6178449;23;20080;-58
2022/09/15 08:21:23;;;;;;;3.00;1.20;;;;;;;;;;6179103;23;20031;-58
2022/09/15 08:23:57;;;;;;;4.75;1.02;;;;;;;;;;6180165;23;20044;-59
2022/09/15 08:26:25;;;;;;;2.08;1.10;;;;;;;;;;6178570;23;20140;-54
2022/09/15 08:28:59;;;;;;;10.93;1.65;;;;;;;;;;6178519;23;20096;-52
2022/09/15 08:31:26;;;;;;;2.58;1.50;;;;;;;;;;6179863;23;20091;-55
2022/09/15 08:33:54;;;;;;;2.75;1.38;;;;;;;;;;6177495;23;20028;-51
2022/09/15 08:36:28;;;;;;;6.88;1.63;;;;;;;;;;6177615;23;20104;-55
2022/09/15 08:38:55;;;;;;;4.07;2.03;;;;;;;;;;6178837;23;20424;-54
2022/09/15 08:41:29;;;;;;;3.33;1.73;;;;;;;;;;6179066;23;20025;-55
2022/09/15 08:44:02;;;;;;;4.93;1.60;;;;;;;;;;6179359;23;20395;-59
2022/09/15 08:46:41;;;;;;;3.05;0.93;;;;;;;;;;6178808;23;20027;-65
2022/09/15 08:49:19;;;;;;;2.13;1.10;;;;;;;;;;6178269;23;20018;-66
2022/09/15 08:52:04;;;;;;;1.13;0.88;;;;;;;;;;6178873;23;20048;-65
2022/09/15 08:54:38;;;;;;;1.27;0.70;;;;;;;;;;6178752;23;20031;-65
2022/09/15 08:57:08;;;;;;;0.70;0.63;;;;;;;;;;6178744;23;20029;-65
2022/09/15 08:59:38;;;;;;;1.85;0.88;;;;;;;;;;6178354;23;20112;-65
2022/09/15 09:02:12;;;;;;;3.85;0.80;;;;;;;;;;6178485;23;20366;-59
2022/09/15 09:04:55;;;;;;;2.30;0.65;;;;;;;;;;6176876;23;20029;-57
2022/09/15 09:07:29;;;;;;;6.20;1.20;;;;;;;;;;6178337;23;20324;-60
2022/09/15 09:10:15;;;;;;;3.67;1.25;;;;;;;;;;6179765;23;20474;-56
2022/09/15 09:12:52;;;;;;;2.15;0.80;;;;;;;;;;6179813;23;20021;-57
2022/09/15 09:15:32;;;;;;;1.55;0.63;;;;;;;;;;6179857;23;20096;-55
2022/09/15 09:18:09;;;;;;;2.67;0.63;;;;;;;;;;6180514;23;20032;-56
2022/09/15 09:20:45;;;;;;;2.65;0.52;;;;;;;;;;6180134;23;20104;-59
2022/09/15 09:23:14;;;;;;;1.60;0.60;;;;;;;;;;6180773;23;20520;-49
2022/09/15 09:25:49;;;;;;;0.38;0.30;;;;;;;;;;6180221;23;20033;-64
2022/09/15 09:28:16;;;;;;;;;;;;;;;;;;6181291;23;20463;-64
2022/09/15 09:30:43;;;;;;;0.65;0.40;;;;;;;;;;6180096;23;19920;-64
2022/09/15 09:33:32;;;;;;;0.50;0.40;;;;;;;;;;6179568;23;20052;-63
2022/09/15 09:36:13;;;;;;;0.45;0.45;;;;;;;;;;6181088;23;20075;-62
2022/09/15 09:38:48;;;;;;;0.60;0.50;;;;;;;;;;6177311;23;20485;-63
2022/09/15 09:41:25;;;;;;;2.42;0.75;;;;;;;;;;6180329;23;20021;-56
2022/09/15 09:43:54;;;;;;;1.42;0.50;;;;;;;;;;6181150;23;20032;-50
2022/09/15 09:46:28;;;;;;;0.50;0.50;;;;;;;;;;6180635;23;20131;-45
2022/09/15 09:49:00;;;;;;;0.30;0.30;;;;;;;;;;6179466;23;20025;-45
2022/09/15 09:51:32;;;;;;;0.60;0.40;;;;;;;;;;6180010;23;20455;-45
2022/09/15 09:54:10;;;;;;;1.80;0.40;;;;;;;;;;6180153;23;20021;-46
2022/09/15 09:56:38;;;;;;;0.45;0.40;;;;;;;;;;6178339;23;20021;-48
2022/09/15 09:59:30;;;;;;;1.10;0.50;;;;;;;;;;6180422;23;20343;-68
2022/09/15 10:02:10;;;;;;;0.90;0.30;;;;;;;;;;6179795;23;20023;-48
2022/09/15 10:04:38;;;;;;;1.08;0.40;;;;;;;;;;6179556;23;20067;-47
2022/09/15 10:07:13;;;;;;;3.03;0.82;;;;;;;;;;6179080;23;20021;-51
2022/09/15 10:09:48;;;;;;;0.57;0.40;;;;;;;;;;6179450;23;20025;-47
2022/09/15 10:12:29;;;;;;;0.30;0.20;;;;;;;;;;6180567;23;20053;-50
2022/09/15 10:14:57;;;;;;;0.38;0.30;;;;;;;;;;6179638;23;20031;-46
2022/09/15 10:17:37;;;;;;;1.38;0.40;;;;;;;;;;6179504;23;20027;-56
2022/09/15 10:20:06;;;;;;;0.28;0.25;;;;;;;;;;6180561;23;20431;-53
2022/09/15 10:22:41;;;;;;;1.35;0.45;;;;;;;;;;6178885;23;20437;-55
2022/09/15 10:25:20;;;;;;;0.38;0.38;;;;;;;;;;6179029;23;20017;-56
2022/09/15 10:28:15;;;;;;;1.55;0.55;;;;;;;;;;6180434;23;20025;-58
2022/09/15 10:31:01;;;;;;;0.50;0.47;;;;;;;;;;6180526;23;20025;-56
2022/09/15 10:33:46;;;;;;;0.43;0.40;;;;;;;;;;6178452;23;20035;-54
2022/09/15 10:36:18;;;;;;;0.60;0.43;;;;;;;;;;6180301;23;20027;-53
2022/09/15 10:38:52;;;;;;;;;;;;;;;;;;6178835;23;20025;-48
2022/09/15 10:41:30;;;;;;;0.20;0.20;;;;;;;;;;6180065;23;19924;-49
2022/09/15 10:44:04;;;;;;;1.95;0.50;;;;;;;;;;6178950;23;20024;-53
2022/09/15 10:46:37;;;;;;;0.80;0.40;;;;;;;;;;6179237;23;20031;-52
2022/09/15 10:49:20;;;;;;;2.30;0.10;;;;;;;;;;6180545;23;20027;-49
2022/09/15 10:51:48;;;;;;;0.13;0.13;;;;;;;;;;6178666;23;20032;-50
2022/09/15 10:54:21;;;;;;;0.52;0.20;;;;;;;;;;6180815;23;20031;-54
2022/09/15 10:56:51;;;;;;;0.35;0.20;;;;;;;;;;6179800;23;20029;-63
2022/09/15 10:59:25;;;;;;;1.05;0.28;;;;;;;;;;6178602;23;20052;-49
2022/09/15 11:02:01;;;;;;;0.28;0.28;;;;;;;;;;6179201;23;20027;-52
2022/09/15 11:04:54;;;;;;;0.20;0.20;;;;;;;;;;6178917;23;20021;-49
2022/09/15 11:07:27;;;;;;;0.17;0.17;;;;;;;;;;6179329;23;20021;-55
2022/09/15 11:10:06;;;;;;;0.35;0.13;;;;;;;;;;6179122;23;20029;-52
2022/09/15 11:12:52;;;;;;;0.10;0.10;;;;;;;;;;6178976;23;20029;-51
2022/09/15 11:15:45;;;;;;;0.10;0.10;;;;;;;;;;6178425;23;20024;-60
2022/09/15 11:18:15;;;;;;;2.13;0.57;;;;;;;;;;6179271;23;20100;-72
2022/09/15 11:21:08;;;;;;;0.95;0.20;;;;;;;;;;6177897;23;20021;-72
2022/09/15 11:23:53;;;;;;;0.10;0.10;;;;;;;;;;6178971;23;20057;-71
2022/09/15 11:26:30;;;;;;;0.95;0.25;;;;;;;;;;6178260;23;20021;-72
2022/09/15 11:29:02;;;;;;;0.35;0.22;;;;;;;;;;6179981;23;20025;-72
2022/09/15 11:31:38;;;;;;;1.45;0.50;;;;;;;;;;6178871;23;20100;-72
2022/09/15 11:34:26;;;;;;;2.42;0.30;;;;;;;;;;6175692;23;20390;-55
2022/09/15 11:37:00;;;;;;;0.57;0.15;;;;;;;;;;6179247;23;20021;-52
2022/09/15 11:39:34;;;;;;;0.40;0.30;;;;;;;;;;6177577;23;20021;-53
2022/09/15 11:42:11;;;;;;;2.17;0.40;;;;;;;;;;6179776;23;20021;-50
2022/09/15 11:44:44;;;;;;;1.77;0.40;;;;;;;;;;6179323;23;20100;-51
2022/09/15 11:47:29;;;;;;;0.38;0.30;;;;;;;;;;6178587;23;20100;-50
2022/09/15 11:50:02;;;;;;;1.77;0.20;;;;;;;;;;6179885;23;20017;-49
2022/09/15 11:52:54;;;;;;;0.82;0.20;;;;;;;;;;6178323;23;20021;-73
2022/09/15 11:55:37;;;;;;;0.40;0.30;;;;;;;;;;6179070;23;20025;-62
2022/09/15 11:58:25;;;;;;;0.33;0.30;;;;;;;;;;6178371;23;20064;-54
2022/09/15 12:01:08;;;;;;;0.30;0.30;;;;;;;;;;6178836;23;20021;-52
2022/09/15 12:03:44;;;;;;;0.30;0.30;;;;;;;;;;6178071;23;20096;-49
2022/09/15 12:06:23;;;;;;;3.03;0.28;;;;;;;;;;6178931;23;20021;-53
2022/09/15 12:08:57;;;;;;;0.38;0.15;;;;;;;;;;6179168;23;20025;-51
2022/09/15 12:11:33;;;;;;;0.40;0.30;;;;;;;;;;6180060;23;20490;-53
2022/09/15 12:14:02;;;;;;;1.42;0.35;;;;;;;;;;6179172;23;20029;-56
2022/09/15 12:16:29;;;;;;;0.47;0.30;;;;;;;;;;6177904;23;20052;-52
2022/09/15 12:19:08;;;;;;;0.20;0.20;;;;;;;;;;6179996;23;20021;-46
2022/09/15 12:21:56;;;;;;;0.30;0.17;;;;;;;;;;6178277;23;20024;-48
2022/09/15 12:24:36;;;;;;;0.55;0.30;;;;;;;;;;6178154;23;20023;-49
2022/09/15 12:27:04;;;;;;;0.30;0.30;;;;;;;;;;6178940;23;20021;-47
2022/09/15 12:29:38;;;;;;;0.20;0.20;;;;;;;;;;6178043;23;20023;-49
2022/09/15 12:32:18;;;;;;;0.20;0.20;;;;;;;;;;6177554;23;20029;-58
2022/09/15 12:35:00;;;;;;;0.30;0.20;;;;;;;;;;6179552;23;20031;-66
2022/09/15 12:37:45;;;;;;;0.70;0.32;;;;;;;;;;6179367;23;20025;-66
2022/09/15 12:40:35;;;;;;;0.80;0.35;;;;;;;;;;6180071;23;20052;-65
2022/09/15 12:43:03;;;;;;;0.20;0.20;;;;;;;;;;6179113;23;20044;-66
2022/09/15 12:45:38;;;;;;;0.47;0.40;;;;;;;;;;6181104;23;20111;-66
2022/09/15 12:48:11;;;;;;;0.20;0.10;;;;;;;;;;6180763;23;20017;-66
2022/09/15 12:50:53;;;;;;;0.63;0.38;;;;;;;;;;6180978;23;20035;-59
2022/09/15 12:53:23;;;;;;;0.55;0.17;;;;;;;;;;6181361;23;20405;-66
2022/09/15 12:55:59;;;;;;;0.38;0.35;;;;;;;;;;6181275;23;20028;-65
2022/09/15 12:58:35;;;;;;;0.20;0.20;;;;;;;;;;6181568;23;20687;-66
2022/09/15 13:01:18;;;;;;;0.57;0.45;;;;;;;;;;6180557;23;20029;-66
2022/09/15 13:03:47;;;;;;;0.88;0.35;;;;;;;;;;6181282;23;20096;-66
2022/09/15 13:06:21;;;;;;;2.50;0.40;;;;;;;;;;6180599;23;20032;-66
2022/09/15 13:08:50;;;;;;;0.63;0.30;;;;;;;;;;6180694;23;20032;-49
2022/09/15 13:11:33;;;;;;;1.92;0.40;;;;;;;;;;6180248;23;20027;-55
2022/09/15 13:14:06;;;;;;;0.75;0.32;;;;;;;;;;6180625;23;20033;-54
2022/09/15 13:16:44;;;;;;;1.63;0.20;;;;;;;;;;6179913;23;20063;-53
2022/09/15 13:19:15;;;;;;;0.55;0.20;;;;;;;;;;6181552;23;20092;-56
2022/09/15 13:22:07;;;;;;;0.90;0.20;;;;;;;;;;6179161;23;20017;-55
2022/09/15 13:24:46;;;;;;;1.27;0.52;;;;;;;;;;6181013;23;20039;-56
2022/09/15 13:27:38;;;;;;;0.20;0.20;;;;;;;;;;6178745;23;20029;-66
2022/09/15 13:30:14;;;;;;;0.73;0.40;;;;;;;;;;6180131;23;20021;-58
2022/09/15 13:32:55;;;;;;;1.55;0.50;;;;;;;;;;6179310;23;20021;-56
2022/09/15 13:35:32;;;;;;;0.45;0.30;;;;;;;;;;6180941;23;20025;-55
2022/09/15 13:38:27;;;;;;;1.40;0.45;;;;;;;;;;6179024;23;20485;-55
2022/09/15 13:41:01;;;;;;;0.57;0.40;;;;;;;;;;6180243;23;20025;-56
2022/09/15 13:43:54;;;;;;;1.37;0.37;;;;;;;;;;6180156;23;20363;-53
2022/09/15 13:46:37;;;;;;;1.48;0.50;;;;;;;;;;6180971;23;20020;-59
2022/09/15 13:49:31;;;;;;;2.15;0.30;;;;;;;;;;6181658;23;20024;-55
2022/09/15 13:52:01;;;;;;;2.00;0.35;;;;;;;;;;6179874;23;20437;-55
2022/09/15 13:54:34;;;;;;;0.40;0.20;;;;;;;;;;6180487;23;20028;-51
2022/09/15 13:57:02;;;;;;;2.53;0.30;;;;;;;;;;6180645;23;20100;-54
2022/09/15 13:59:29;;;;;;;;;;;;;;;;;;6181256;23;20329;-53
2022/09/15 14:02:07;;;;;;;0.32;0.20;;;;;;;;;;6179974;23;19926;-53
2022/09/15 14:04:35;;;;;;;0.60;0.30;;;;;;;;;;6179570;23;20024;-55
2022/09/15 14:07:20;;;;;;;1.55;0.35;;;;;;;;;;6178396;23;20025;-55
2022/09/15 14:09:48;;;;;;;0.40;0.38;;;;;;;;;;6176139;23;20414;-60
2022/09/15 14:12:21;;;;;;;2.40;0.30;;;;;;;;;;6177530;23;20680;-60
2022/09/15 14:14:59;;;;;;;2.13;0.40;;;;;;;;;;6175972;23;20512;-60
2022/09/15 14:17:43;;;;;;;0.77;0.30;;;;;;;;;;6177389;23;20075;-60
2022/09/15 14:20:23;;;;;;;1.40;0.50;;;;;;;;;;6177755;23;20053;-59
2022/09/15 14:22:57;;;;;;;0.30;0.30;;;;;;;;;;6176416;23;20031;-59
2022/09/15 14:25:24;;;;;;;0.90;0.30;;;;;;;;;;6176704;23;20025;-66
2022/09/15 14:27:58;;;;;;;0.52;0.35;;;;;;;;;;6175689;23;20104;-47
2022/09/15 14:30:27;;;;;;;0.45;0.30;;;;;;;;;;6174490;23;20025;-49
2022/09/15 14:33:22;;;;;;;3.40;0.50;;;;;;;;;;6174016;23;20021;-52
2022/09/15 14:35:55;;;;;;;0.47;0.32;;;;;;;;;;6176525;23;20366;-53
2022/09/15 14:38:29;;;;;;;0.30;0.30;;;;;;;;;;6176836;23;20025;-49
2022/09/15 14:40:58;;;;;;;0.20;0.20;;;;;;;;;;6177839;23;20021;-46
2022/09/15 14:43:34;;;;;;;0.50;0.40;;;;;;;;;;6176886;23;20112;-53
2022/09/15 14:46:11;;;;;;;1.95;0.60;;;;;;;;;;6176926;23;20031;-47
2022/09/15 14:48:45;;;;;;;1.10;0.30;;;;;;;;;;6175753;23;20027;-53
2022/09/15 14:51:18;;;;;;;0.43;0.30;;;;;;;;;;6176371;23;20132;-52
2022/09/15 14:53:53;;;;;;;0.32;0.30;;;;;;;;;;6177052;23;20035;-56
2022/09/15 14:56:23;;;;;;;0.82;0.40;;;;;;;;;;6176138;23;20488;-54
2022/09/15 14:58:59;;;;;;;0.60;0.40;;;;;;;;;;6173917;23;20458;-53
2022/09/15 15:01:35;;;;;;;0.75;0.40;;;;;;;;;;6175464;23;20021;-55
2022/09/15 15:04:21;;;;;;;1.05;0.30;;;;;;;;;;6177087;23;20021;-58
2022/09/15 15:06:48;;;;;;;0.30;0.30;;;;;;;;;;6174379;23;20115;-60
2022/09/15 15:09:28;;;;;;;0.25;0.25;;;;;;;;;;6176272;23;20025;-60
2022/09/15 15:11:57;;;;;;;0.47;0.47;;;;;;;;;;6174752;23;20047;-60
2022/09/15 15:14:32;;;;;;;1.10;0.25;;;;;;;;;;6175338;23;20028;-60
2022/09/15 15:17:00;;;;;;;1.15;0.20;;;;;;;;;;6176381;23;20053;-59
2022/09/15 15:19:32;;;;;;;2.00;0.43;;;;;;;;;;6176469;23;20063;-59
2022/09/15 15:22:19;;;;;;;0.28;0.28;;;;;;;;;;6175232;23;20025;-59
2022/09/15 15:24:51;;;;;;;1.52;0.30;;;;;;;;;;6175756;23;20119;-57
2022/09/15 15:27:24;;;;;;;0.32;0.28;;;;;;;;;;6175024;23;20108;-46
2022/09/15 15:29:51;;;;;;;0.20;0.20;;;;;;;;;;6174758;23;20095;-44
2022/09/15 15:32:25;;;;;;;1.65;0.38;;;;;;;;;;6179035;23;20032;-45
2022/09/15 15:35:00;;;;;;;0.30;0.30;;;;;;;;;;6178547;23;20104;-47
2022/09/15 15:37:34;;;;;;;0.32;0.30;;;;;;;;;;6178989;23;20025;-47
2022/09/15 15:40:05;;;;;;;0.40;0.28;;;;;;;;;;6179369;23;20099;-45
2022/09/15 15:42:50;;;;;;;0.45;0.22;;;;;;;;;;6179089;23;20017;-65
2022/09/15 15:45:26;;;;;;;0.88;0.40;;;;;;;;;;6178544;23;20032;-60
2022/09/15 15:48:05;;;;;;;1.00;0.10;;;;;;;;;;6178584;23;20031;-59
2022/09/15 15:50:32;;;;;;;1.02;0.40;;;;;;;;;;6179653;23;20127;-59
2022/09/15 15:53:06;;;;;;;0.35;0.35;;;;;;;;;;6179336;23;20031;-60
2022/09/15 15:55:38;;;;;;;0.20;0.20;;;;;;;;;;6179762;23;20028;-60
2022/09/15 15:58:13;;;;;;;0.55;0.17;;;;;;;;;;6178484;23;20047;-59
2022/09/15 16:00:45;;;;;;;0.28;0.20;;;;;;;;;;6177420;23;20505;-64
2022/09/15 16:03:20;;;;;;;2.20;0.40;;;;;;;;;;6178665;23;20076;-57
2022/09/15 16:05:52;;;;;;;0.52;0.30;;;;;;;;;;6178596;23;20068;-57
2022/09/15 16:08:28;;;;;;;3.72;0.40;;;;;;;;;;6178735;23;20043;-56
2022/09/15 16:11:02;;;;;;;2.50;0.50;;;;;;;;;;6177955;23;20546;-56
2022/09/15 16:13:36;;;;;;;0.50;0.30;;;;;;;;;;6178136;23;20031;-56
2022/09/15 16:16:11;;;;;;;1.13;0.40;;;;;;;;;;6178658;23;20035;-58
2022/09/15 16:18:46;;;;;;;1.45;0.40;;;;;;;;;;6177896;23;20422;-60
2022/09/15 16:21:17;;;;;;;1.75;0.47;;;;;;;;;;6174717;23;20025;-46
2022/09/15 16:23:44;;;;;;;1.23;0.20;;;;;;;;;;6177803;23;20435;-56
2022/09/15 16:26:21;;;;;;;4.22;0.70;;;;;;;;;;6177312;23;20031;-56
2022/09/15 16:28:48;;;;;;;1.40;0.40;;;;;;;;;;6178946;23;20048;-56
2022/09/15 16:31:15;;;;;;;2.40;0.40;;;;;;;;;;6178609;23;20021;-54
2022/09/15 16:33:56;;;;;;;1.88;0.80;;;;;;;;;;6179259;23;20025;-58
2022/09/15 16:36:23;;;;;;;3.08;0.35;;;;;;;;;;6178297;23;20027;-57
2022/09/15 16:38:57;;;;;;;2.40;0.40;;;;;;;;;;6179261;23;20017;-74
2022/09/15 16:41:25;;;;;;;1.48;0.40;;;;;;;;;;6177400;23;20044;-46
2022/09/15 16:43:54;;;;;;;1.35;0.75;;;;;;;;;;6178529;23;20134;-51
2022/09/15 16:46:28;;;;;;;1.05;0.40;;;;;;;;;;6177169;23;20032;-56
2022/09/15 16:48:56;;;;;;;1.52;0.60;;;;;;;;;;6179182;23;20025;-54
2022/09/15 16:51:30;;;;;;;0.70;0.40;;;;;;;;;;6178420;23;20344;-56
2022/09/15 16:53:58;;;;;;;2.60;0.32;;;;;;;;;;6177962;23;20024;-53
2022/09/15 16:56:25;;;;;;;1.27;0.55;;;;;;;;;;6178422;23;20489;-54
2022/09/15 16:58:59;;;;;;;0.90;0.40;;;;;;;;;;6178309;23;20096;-75
2022/09/15 17:01:27;;;;;;;2.83;0.55;;;;;;;;;;6177446;23;20120;-74
2022/09/15 17:04:01;;;;;;;2.30;0.70;;;;;;;;;;6178105;23;20029;-73
2022/09/15 17:06:28;;;;;;;2.90;0.60;;;;;;;;;;6178261;23;20020;-73
2022/09/15 17:08:55;;;;;;;0.38;0.20;;;;;;;;;;6173856;23;20432;-73
2022/09/15 17:11:29;;;;;;;1.00;0.43;;;;;;;;;;6174809;23;20021;-73
2022/09/15 17:13:56;;;;;;;0.63;0.30;;;;;;;;;;6175110;23;20366;-73
2022/09/15 17:16:31;;;;;;;1.90;0.82;;;;;;;;;;6175621;23;20092;-65
2022/09/15 17:18:58;;;;;;;2.30;0.50;;;;;;;;;;6176234;23;20035;-45
2022/09/15 17:21:26;;;;;;;2.00;0.57;;;;;;;;;;6173223;23;20025;-59
2022/09/15 17:23:59;;;;;;;4.90;0.60;;;;;;;;;;6176657;23;20027;-60
2022/09/15 17:26:26;;;;;;;2.38;0.40;;;;;;;;;;6174156;23;20533;-60
2022/09/15 17:29:00;;;;;;;2.42;0.45;;;;;;;;;;6174696;23;20031;-60
2022/09/15 17:31:27;;;;;;;4.53;0.47;;;;;;;;;;6177929;23;20052;-60
2022/09/15 17:33:55;;;;;;;1.92;0.40;;;;;;;;;;6175487;23;20439;-59
2022/09/15 17:36:36;;;;;;;1.38;0.43;;;;;;;;;;6177200;23;20404;-50
2022/09/15 17:39:03;;;;;;;3.63;0.47;;;;;;;;;;6177609;23;20563;-74
2022/09/15 17:41:37;;;;;;;0.60;0.50;;;;;;;;;;6176140;23;20017;-73
2022/09/15 17:44:10;;;;;;;5.03;0.65;;;;;;;;;;6176641;23;20068;-73
2022/09/15 17:46:43;;;;;;;1.00;0.35;;;;;;;;;;6176059;23;20482;-73
2022/09/15 17:49:11;;;;;;;2.22;0.60;;;;;;;;;;6176172;23;20021;-74
2022/09/15 17:51:38;;;;;;;3.00;0.55;;;;;;;;;;6177198;23;20029;-73
2022/09/15 17:54:12;;;;;;;3.85;0.60;;;;;;;;;;6177008;23;20346;-58
2022/09/15 17:56:39;;;;;;;;;;;;;;;;;;6174587;23;20020;-73
2022/09/15 17:59:12;;;;;;;2.65;0.40;;;;;;;;;;6176547;23;19920;-58
2022/09/15 18:01:42;;;;;;;2.58;0.70;;;;;;;;;;6176220;23;20622;-56
2022/09/15 18:04:10;;;;;;;3.78;0.70;;;;;;;;;;6176949;23;20021;-57
2022/09/15 18:06:44;;;;;;;3.58;0.77;;;;;;;;;;6176894;23;20024;-57
2022/09/15 18:09:13;;;;;;;1.25;0.43;;;;;;;;;;6176548;23;20021;-57
2022/09/15 18:11:48;;;;;;;3.08;0.60;;;;;;;;;;6176586;23;20483;-58
2022/09/15 18:14:15;;;;;;;1.65;0.47;;;;;;;;;;6177079;23;20426;-46
2022/09/15 18:16:42;;;;;;;1.95;0.77;;;;;;;;;;6172913;23;20257;-57
2022/09/15 18:19:15;;;;;;;1.80;0.60;;;;;;;;;;6172050;23;20490;-66
2022/09/15 18:21:43;;;;;;;1.25;0.77;;;;;;;;;;6175284;23;20474;-66
2022/09/15 18:24:18;;;;;;;0.90;0.65;;;;;;;;;;6177005;23;20021;-66
2022/09/15 18:26:45;;;;;;;1.05;0.68;;;;;;;;;;6175991;23;20103;-66
2022/09/15 18:29:19;;;;;;;6.57;0.70;;;;;;;;;;6174225;23;20025;-66
2022/09/15 18:31:47;;;;;;;1.00;0.50;;;;;;;;;;6175569;23;20403;-66
2022/09/15 18:34:14;;;;;;;1.83;0.52;;;;;;;;;;6174352;23;20036;-73
2022/09/15 18:36:54;;;;;;;3.63;0.60;;;;;;;;;;6176179;23;20025;-45
2022/09/15 18:39:21;;;;;;;2.63;0.40;;;;;;;;;;6175727;23;20779;-47
2022/09/15 18:41:55;;;;;;;0.85;0.47;;;;;;;;;;6176545;23;20455;-46
2022/09/15 18:44:23;;;;;;;4.07;0.40;;;;;;;;;;6176644;23;20387;-45
2022/09/15 18:46:50;;;;;;;2.17;0.63;;;;;;;;;;6175772;23;20104;-46
2022/09/15 18:49:23;;;;;;;0.73;0.40;;;;;;;;;;6176037;23;20036;-47
2022/09/15 18:51:50;;;;;;;4.53;0.90;;;;;;;;;;6176006;23;20103;-57
2022/09/15 18:54:24;;;;;;;3.70;0.57;;;;;;;;;;6176094;23;20028;-58
2022/09/15 18:56:52;;;;;;;1.27;0.50;;;;;;;;;;6176649;23;20107;-49
2022/09/15 18:59:19;;;;;;;2.45;0.98;;;;;;;;;;6174552;23;20032;-49
2022/09/15 19:01:52;;;;;;;3.53;0.60;;;;;;;;;;6176499;23;20027;-45
2022/09/15 19:04:20;;;;;;;1.55;0.65;;;;;;;;;;6175886;23;20510;-47
2022/09/15 19:06:59;;;;;;;2.83;1.08;;;;;;;;;;6177704;23;20079;-46
2022/09/15 19:09:26;;;;;;;2.67;0.80;;;;;;;;;;6175750;23;20021;-48
2022/09/15 19:12:01;;;;;;;1.80;0.75;;;;;;;;;;6176139;23;20025;-57
2022/09/15 19:14:34;;;;;;;1.58;0.75;;;;;;;;;;6174932;23;20033;-57
2022/09/15 19:17:02;;;;;;;2.67;1.05;;;;;;;;;;6177226;23;20108;-58
2022/09/15 19:19:29;;;;;;;1.17;0.65;;;;;;;;;;6172990;23;20040;-58
2022/09/15 19:22:04;;;;;;;1.60;0.88;;;;;;;;;;6176359;23;20096;-57
2022/09/15 19:24:32;;;;;;;;;;;;;;;;;;6176186;23;20020;-58
2022/09/15 19:27:07;;;;;;;1.00;0.75;;;;;;;;;;6174848;23;19983;-57
2022/09/15 19:29:34;;;;;;;;;;;;;;;;;;6175023;23;20418;-64
2022/09/15 19:32:09;;;;;;;1.13;0.85;;;;;;;;;;6174171;23;20000;-66
2022/09/15 19:34:44;;;;;;;3.63;1.08;;;;;;;;;;6175801;23;20031;-47
2022/09/15 19:37:20;;;;;;;1.48;0.98;;;;;;;;;;6173811;23;20084;-47